Time;durP1;ratioP1;P1;durP2;ratioP2;P2;SDS_P1;SDS_P2;PMS_P1;PMS_P2;Temp;Humidity;BMP_temperature;BMP_pressure;BME280_temperature;BME280_humidity;BME280_pressure;Samples;Min_cycle;Max_cycle;Signal;HPM_P1;HPM_P2
2022/09/30 00:00:00;;;;;;;13.20;9.90;;;15.60;99.90;;;;;;5012262;28;20214;-72
2022/09/30 00:02:28;;;;;;;12.03;9.47;;;15.60;99.90;;;;;;5011371;28;20225;-72
2022/09/30 00:04:55;;;;;;;11.83;9.13;;;15.60;99.90;;;;;;5011109;28;20247;-73
2022/09/30 00:07:22;;;;;;;13.67;8.93;;;15.70;99.90;;;;;;5011615;28;20214;-72
2022/09/30 00:09:49;;;;;;;12.70;9.60;;;15.70;99.90;;;;;;5011122;28;20252;-72
2022/09/30 00:12:16;;;;;;;13.43;9.00;;;15.70;99.90;;;;;;5010769;28;20228;-73
2022/09/30 00:14:43;;;;;;;14.37;9.20;;;15.70;99.90;;;;;;5010718;28;20305;-72
2022/09/30 00:17:10;;;;;;;11.80;9.47;;;15.70;99.90;;;;;;5011437;28;20584;-72
2022/09/30 00:19:38;;;;;;;12.37;9.40;;;15.70;99.90;;;;;;5011369;28;20242;-74
2022/09/30 00:22:05;;;;;;;12.83;9.43;;;15.70;99.90;;;;;;5014740;28;20653;-72
2022/09/30 00:24:32;;;;;;;13.07;8.90;;;15.70;99.90;;;;;;5030565;28;20224;-72
2022/09/30 00:26:59;;;;;;;12.83;9.37;;;15.70;99.90;;;;;;5030157;28;20684;-72
2022/09/30 00:29:26;;;;;;;12.27;9.13;;;15.70;99.90;;;;;;5011409;28;20215;-71
2022/09/30 00:31:52;;;;;;;12.40;9.37;;;15.70;99.90;;;;;;5011389;28;20587;-73
2022/09/30 00:34:19;;;;;;;13.90;9.60;;;15.70;99.90;;;;;;5011103;28;20221;-72
2022/09/30 00:36:49;;;;;;;13.13;8.93;;;15.70;99.90;;;;;;5012874;28;20599;-72
2022/09/30 00:39:18;;;;;;;10.33;8.53;;;15.70;99.90;;;;;;5030382;28;20543;-71
2022/09/30 00:41:47;;;;;;;13.87;9.13;;;15.70;99.90;;;;;;5031258;28;20313;-73
2022/09/30 00:44:53;;;;;;;13.57;9.30;;;15.70;99.90;;;;;;5031033;28;20218;-72
2022/09/30 00:47:45;;;;;;;12.87;8.60;;;15.70;99.90;;;;;;5024164;28;20258;-73
2022/09/30 00:50:33;;;;;;;10.23;8.33;;;15.70;99.90;;;;;;5024394;28;20231;-72
2022/09/30 00:53:08;;;;;;;13.07;9.40;;;15.70;99.90;;;;;;5010294;28;20256;-72
2022/09/30 00:55:44;;;;;;;12.17;8.10;;;15.70;99.90;;;;;;5010759;28;20221;-71
2022/09/30 00:58:16;;;;;;;12.13;8.13;;;15.70;99.90;;;;;;5010123;28;20187;-71
2022/09/30 01:00:43;;;;;;;11.83;8.60;;;15.70;99.90;;;;;;5018222;28;20210;-72
2022/09/30 01:03:10;;;;;;;11.37;9.00;;;15.70;99.90;;;;;;5029902;28;20704;-74
2022/09/30 01:05:36;;;;;;;12.53;9.33;;;15.70;99.90;;;;;;5029572;28;20190;-71
2022/09/30 01:08:07;;;;;;;12.80;9.07;;;15.60;99.90;;;;;;5030145;28;20230;-73
2022/09/30 01:10:33;;;;;;;12.50;8.83;;;15.60;99.90;;;;;;5026629;28;20204;-72
2022/09/30 01:13:01;;;;;;;10.67;8.67;;;15.60;99.90;;;;;;5029052;28;20207;-73
2022/09/30 01:15:38;;;;;;;11.63;8.70;;;15.60;99.90;;;;;;5009983;28;20600;-72
2022/09/30 01:18:13;;;;;;;12.80;9.30;;;15.60;99.90;;;;;;5010032;28;20294;-72
2022/09/30 01:21:00;;;;;;;13.07;9.17;;;15.60;99.90;;;;;;5017569;28;20224;-71
2022/09/30 01:24:11;;;;;;;12.07;8.30;;;15.60;99.90;;;;;;5029216;28;20195;-72
2022/09/30 01:27:04;;;;;;;11.20;9.20;;;15.50;99.90;;;;;;5008348;28;20199;-71
2022/09/30 01:30:02;;;;;;;12.67;9.30;;;15.60;99.90;;;;;;5029818;28;20206;-72
2022/09/30 01:32:49;;;;;;;15.47;9.33;;;15.50;99.90;;;;;;5028637;28;20216;-72
2022/09/30 01:35:25;;;;;;;13.63;9.10;;;15.40;99.90;;;;;;5019300;28;20203;-72
2022/09/30 01:38:01;;;;;;;13.13;9.20;;;15.40;99.90;;;;;;5009720;28;20289;-72
2022/09/30 01:40:38;;;;;;;12.80;9.07;;;15.40;99.90;;;;;;5009909;28;20592;-72
2022/09/30 01:43:09;;;;;;;14.67;8.83;;;15.30;99.90;;;;;;5009910;28;20203;-72
2022/09/30 01:45:42;;;;;;;11.23;8.77;;;15.30;99.90;;;;;;5018064;28;20242;-72
2022/09/30 01:48:19;;;;;;;12.40;9.00;;;15.30;99.90;;;;;;5027081;28;20193;-71
2022/09/30 01:50:52;;;;;;;12.10;8.60;;;15.30;99.90;;;;;;5024303;28;20206;-71
2022/09/30 01:53:25;;;;;;;12.00;9.03;;;15.30;99.90;;;;;;5025310;28;20199;-72
2022/09/30 01:55:57;;;;;;;12.03;9.03;;;15.20;99.90;;;;;;5017002;28;20207;-72
2022/09/30 01:58:32;;;;;;;14.70;9.47;;;15.20;99.90;;;;;;5009144;28;20215;-71
2022/09/30 02:01:05;;;;;;;14.70;9.13;;;15.10;99.90;;;;;;5009370;28;20191;-72
2022/09/30 02:03:37;;;;;;;14.30;9.00;;;15.10;99.90;;;;;;5009072;28;20300;-71
2022/09/30 02:06:08;;;;;;;12.53;9.10;;;15.10;99.90;;;;;;5009436;28;20554;-72
2022/09/30 02:08:40;;;;;;;10.83;8.83;;;15.00;99.90;;;;;;5009320;28;20237;-72
2022/09/30 02:11:12;;;;;;;11.10;8.60;;;15.00;99.90;;;;;;5009062;28;20220;-73
2022/09/30 02:13:43;;;;;;;11.17;9.23;;;15.00;99.90;;;;;;5009513;28;20214;-70
2022/09/30 02:16:16;;;;;;;13.13;10.27;;;14.90;99.90;;;;;;5019469;28;20199;-72
2022/09/30 02:18:49;;;;;;;11.30;9.27;;;14.90;99.90;;;;;;5029234;28;20190;-73
2022/09/30 02:21:21;;;;;;;12.83;9.07;;;14.90;99.90;;;;;;5029123;28;20271;-72
2022/09/30 02:23:52;;;;;;;12.23;9.00;;;14.90;99.90;;;;;;5029172;28;20567;-72
2022/09/30 02:26:24;;;;;;;19.40;10.30;;;14.90;99.90;;;;;;5027581;28;20213;-73
2022/09/30 02:28:56;;;;;;;12.27;9.77;;;14.80;99.90;;;;;;5028984;28;20191;-72
2022/09/30 02:31:26;;;;;;;14.37;9.57;;;14.80;99.90;;;;;;5029141;28;20568;-72
2022/09/30 02:34:00;;;;;;;13.03;9.30;;;14.70;99.90;;;;;;5029352;28;20203;-72
2022/09/30 02:36:32;;;;;;;14.20;9.03;;;14.70;99.90;;;;;;5028118;28;20206;-72
2022/09/30 02:39:03;;;;;;;15.00;10.30;;;14.70;99.90;;;;;;5029382;28;20216;-72
2022/09/30 02:41:34;;;;;;;13.57;9.27;;;14.70;99.90;;;;;;5028197;28;20195;-72
2022/09/30 02:44:02;;;;;;;13.80;8.90;;;14.70;99.90;;;;;;5028845;28;20183;-72
2022/09/30 02:46:37;;;;;;;15.33;9.70;;;14.70;99.90;;;;;;5027613;28;20210;-72
2022/09/30 02:49:10;;;;;;;14.07;9.90;;;14.60;99.90;;;;;;5028429;28;20205;-72
2022/09/30 02:51:42;;;;;;;12.53;10.07;;;14.60;99.90;;;;;;5028825;28;20197;-72
2022/09/30 02:54:18;;;;;;;14.57;10.23;;;14.60;99.90;;;;;;5028773;28;20312;-71
2022/09/30 02:56:50;;;;;;;15.30;9.87;;;14.60;99.90;;;;;;5025512;28;20214;-72
2022/09/30 02:59:18;;;;;;;11.20;9.07;;;14.50;99.90;;;;;;5028585;28;20197;-73
2022/09/30 03:01:45;;;;;;;13.77;9.60;;;14.50;99.90;;;;;;5030711;28;20612;-71
2022/09/30 03:04:16;;;;;;;15.47;10.43;;;14.50;99.90;;;;;;5031438;28;20710;-71
2022/09/30 03:06:43;;;;;;;15.13;9.70;;;14.50;99.90;;;;;;5029014;28;20213;-71
2022/09/30 03:09:10;;;;;;;11.30;8.77;;;14.50;99.90;;;;;;5031448;28;20671;-71
2022/09/30 03:11:37;;;;;;;12.10;9.67;;;14.50;99.90;;;;;;5014124;28;20214;-71
2022/09/30 03:14:35;;;;;;;11.50;9.07;;;14.50;99.90;;;;;;5011622;28;20211;-73
2022/09/30 03:17:24;;;;;;;10.70;8.60;;;14.50;99.90;;;;;;5029015;28;20329;-71
2022/09/30 03:20:15;;;;;;;12.93;9.40;;;14.40;99.90;;;;;;5020109;28;20209;-71
2022/09/30 03:23:03;;;;;;;15.90;8.90;;;14.40;99.90;;;;;;5011517;28;20195;-71
2022/09/30 03:25:38;;;;;;;12.97;8.63;;;14.40;99.90;;;;;;5015604;28;20194;-72
2022/09/30 03:28:17;;;;;;;12.90;8.50;;;14.40;99.90;;;;;;5030905;28;20190;-73
2022/09/30 03:30:51;;;;;;;11.90;8.23;;;14.40;99.90;;;;;;5031008;28;20197;-72
2022/09/30 03:33:23;;;;;;;11.67;8.47;;;14.40;99.90;;;;;;5031511;28;20191;-70
2022/09/30 03:35:59;;;;;;;12.87;10.00;;;14.40;99.90;;;;;;5030240;27;20214;-74
2022/09/30 03:38:36;;;;;;;19.53;10.90;;;14.40;99.90;;;;;;5031478;28;20214;-70
2022/09/30 03:41:08;;;;;;;15.77;10.60;;;14.50;99.90;;;;;;5031214;28;20201;-71
2022/09/30 03:43:38;;;;;;;35.17;13.97;;;14.50;99.90;;;;;;5031338;28;20194;-70
2022/09/30 03:46:15;;;;;;;47.77;15.23;;;14.50;99.90;;;;;;5030088;28;20213;-71
2022/09/30 03:48:43;;;;;;;34.80;15.20;;;14.60;99.90;;;;;;5030738;28;20190;-70
2022/09/30 03:51:12;;;;;;;555.50;45.27;;;14.60;99.90;;;;;;5030574;28;20213;-71
2022/09/30 03:53:40;;;;;;;238.07;27.90;;;14.60;99.90;;;;;;5014784;28;20207;-71
2022/09/30 03:56:07;;;;;;;185.10;25.33;;;14.60;99.90;;;;;;5011248;28;20211;-71
2022/09/30 03:58:42;;;;;;;199.10;25.50;;;14.70;99.90;;;;;;5011195;28;20227;-71
2022/09/30 04:01:17;;;;;;;304.00;30.03;;;14.70;99.90;;;;;;5011208;28;20640;-71
2022/09/30 04:03:44;;;;;;;366.10;34.27;;;14.70;99.90;;;;;;5023043;28;20714;-71
2022/09/30 04:06:14;;;;;;;27.17;15.27;;;14.70;99.90;;;;;;5030708;28;20230;-74
2022/09/30 04:08:41;;;;;;;25.63;15.07;;;14.80;99.90;;;;;;5030632;28;20294;-71
2022/09/30 04:11:07;;;;;;;32.30;15.67;;;14.80;99.90;;;;;;5030703;28;20242;-70
2022/09/30 04:13:34;;;;;;;27.40;15.10;;;14.90;99.90;;;;;;5015944;28;20223;-71
2022/09/30 04:16:01;;;;;;;27.20;15.63;;;14.90;99.90;;;;;;5021017;28;20211;-73
2022/09/30 04:18:30;;;;;;;38.73;16.17;;;15.00;99.90;;;;;;5030564;28;20634;-71
2022/09/30 04:20:57;;;;;;;27.97;15.87;;;15.00;99.90;;;;;;5028001;28;20716;-72
2022/09/30 04:23:25;;;;;;;149.43;21.13;;;15.00;99.90;;;;;;5015670;28;20218;-72
2022/09/30 04:25:52;;;;;;;267.97;28.97;;;15.00;99.90;;;;;;5030510;28;20220;-71
2022/09/30 04:28:20;;;;;;;109.30;19.73;;;15.00;99.90;;;;;;5030464;28;20211;-72
2022/09/30 04:30:46;;;;;;;76.93;18.20;;;15.10;99.90;;;;;;5030342;28;20210;-71
2022/09/30 04:33:13;;;;;;;422.00;33.37;;;15.10;99.90;;;;;;5030298;28;20217;-70
2022/09/30 04:35:40;;;;;;;269.50;28.40;;;15.10;99.90;;;;;;5030946;28;20202;-70
2022/09/30 04:38:07;;;;;;;302.03;32.60;;;15.10;99.90;;;;;;5027553;28;20236;-71
2022/09/30 04:40:38;;;;;;;166.77;24.37;;;15.20;99.90;;;;;;5010567;28;20273;-71
2022/09/30 04:43:05;;;;;;;128.00;22.03;;;15.20;99.90;;;;;;5010326;28;20195;-71
2022/09/30 04:45:32;;;;;;;321.40;32.43;;;15.20;99.90;;;;;;5010884;28;20215;-71
2022/09/30 04:47:58;;;;;;;301.87;36.10;;;15.20;99.90;;;;;;5015922;28;20208;-73
2022/09/30 04:50:25;;;;;;;366.40;34.67;;;15.20;99.90;;;;;;5030267;28;20206;-72
2022/09/30 04:52:54;;;;;;;82.67;21.50;;;15.20;99.90;;;;;;5029962;28;20305;-71
2022/09/30 04:55:22;;;;;;;62.50;18.73;;;15.20;99.90;;;;;;5029999;28;20210;-72
2022/09/30 04:57:50;;;;;;;388.20;34.70;;;15.30;99.90;;;;;;5030085;28;20256;-72
2022/09/30 05:00:17;;;;;;;23.73;16.63;;;15.30;99.90;;;;;;5024940;28;20211;-73
2022/09/30 05:02:44;;;;;;;24.73;16.57;;;15.30;99.90;;;;;;5029904;28;20210;-73
2022/09/30 05:05:11;;;;;;;28.83;17.07;;;15.40;99.90;;;;;;5029935;28;20795;-72
2022/09/30 05:07:38;;;;;;;29.80;16.63;;;15.40;99.90;;;;;;5028361;28;20202;-72
2022/09/30 05:10:06;;;;;;;27.37;17.47;;;15.50;99.90;;;;;;5030104;28;20668;-72
2022/09/30 05:12:33;;;;;;;29.87;21.60;;;15.50;99.90;;;;;;5029895;28;20247;-72
2022/09/30 05:15:01;;;;;;;27.67;18.77;;;15.60;99.90;;;;;;5028853;28;20558;-72
2022/09/30 05:17:30;;;;;;;30.63;18.53;;;15.60;99.90;;;;;;5010112;28;20235;-73
2022/09/30 05:19:57;;;;;;;46.37;20.13;;;15.70;99.90;;;;;;5010048;28;20221;-73
2022/09/30 05:22:24;;;;;;;45.20;18.83;;;15.70;99.90;;;;;;5010831;28;20208;-71
2022/09/30 05:24:51;;;;;;;27.37;17.67;;;15.80;99.90;;;;;;5009469;28;20214;-72
2022/09/30 05:27:18;;;;;;;32.57;18.37;;;15.80;99.90;;;;;;5027863;28;20694;-74
2022/09/30 05:29:45;;;;;;;115.63;23.00;;;15.80;99.90;;;;;;5029809;28;20217;-72
2022/09/30 05:32:14;;;;;;;26.83;17.93;;;15.80;99.90;;;;;;5029736;28;20216;-71
2022/09/30 05:34:40;;;;;;;24.33;17.33;;;15.90;99.90;;;;;;5029723;28;20274;-73
2022/09/30 05:37:08;;;;;;;32.20;19.90;;;15.90;99.90;;;;;;5029559;28;20206;-71
2022/09/30 05:39:35;;;;;;;48.97;21.47;;;15.90;99.90;;;;;;5028579;28;20299;-72
2022/09/30 05:42:02;;;;;;;30.40;19.03;;;16.00;99.90;;;;;;5029577;28;20213;-72
2022/09/30 05:44:29;;;;;;;26.50;17.53;;;16.00;99.90;;;;;;5029919;28;20305;-72
2022/09/30 05:46:56;;;;;;;34.53;20.10;;;16.10;99.90;;;;;;5029354;28;20207;-71
2022/09/30 05:49:25;;;;;;;34.57;20.50;;;16.10;99.90;;;;;;5029667;28;20584;-73
2022/09/30 05:51:52;;;;;;;24.47;17.73;;;16.10;99.90;;;;;;5028448;28;20208;-71
2022/09/30 05:54:19;;;;;;;27.00;18.47;;;16.20;99.90;;;;;;5029537;28;20211;-72
2022/09/30 05:56:45;;;;;;;28.30;18.50;;;16.20;99.90;;;;;;5029461;28;20222;-73
2022/09/30 05:59:12;;;;;;;26.67;18.30;;;16.30;99.90;;;;;;5029436;28;20226;-73
2022/09/30 06:01:39;;;;;;;27.90;18.83;;;16.30;99.90;;;;;;5027361;28;20210;-72
2022/09/30 06:04:06;;;;;;;25.60;18.03;;;16.40;99.90;;;;;;5017504;28;20230;-72
2022/09/30 06:06:34;;;;;;;26.90;18.90;;;16.40;99.90;;;;;;5009633;28;20219;-72
2022/09/30 06:09:00;;;;;;;25.93;18.73;;;16.40;99.90;;;;;;5009723;28;20568;-72
2022/09/30 06:11:27;;;;;;;29.30;19.13;;;16.50;99.90;;;;;;5009876;28;20593;-71
2022/09/30 06:13:55;;;;;;;25.77;18.00;;;16.50;99.90;;;;;;5009937;28;20813;-71
2022/09/30 06:16:22;;;;;;;26.87;18.17;;;16.50;99.90;;;;;;5009077;28;20209;-72
2022/09/30 06:18:49;;;;;;;25.20;18.13;;;16.60;99.90;;;;;;5021129;28;20286;-72
2022/09/30 06:21:18;;;;;;;22.10;16.27;;;16.60;99.90;;;;;;5029201;28;20206;-71
2022/09/30 06:23:46;;;;;;;24.53;17.67;;;16.70;99.90;;;;;;5029101;28;20574;-72
2022/09/30 06:26:14;;;;;;;22.57;16.00;;;16.70;99.90;;;;;;5028496;28;20199;-72
2022/09/30 06:28:41;;;;;;;23.47;17.00;;;16.80;99.90;;;;;;5028818;28;20234;-72
2022/09/30 06:31:08;;;;;;;25.00;17.73;;;16.80;99.90;;;;;;5028929;28;20211;-72
2022/09/30 06:33:35;;;;;;;20.50;15.33;;;16.90;99.90;;;;;;5012160;28;20230;-71
2022/09/30 06:36:03;;;;;;;21.07;15.37;;;16.90;99.90;;;;;;5010490;28;20208;-72
2022/09/30 06:38:30;;;;;;;20.13;15.60;;;16.90;99.90;;;;;;5012455;28;20234;-72
2022/09/30 06:41:00;;;;;;;19.90;15.47;;;17.00;99.90;;;;;;5012341;28;20212;-72
2022/09/30 06:43:27;;;;;;;21.57;16.57;;;17.00;99.90;;;;;;5012712;28;20225;-72
2022/09/30 06:45:54;;;;;;;22.73;16.67;;;17.10;99.90;;;;;;5012581;28;20674;-73
2022/09/30 06:48:22;;;;;;;25.07;17.17;;;17.10;99.90;;;;;;5029820;28;20251;-72
2022/09/30 06:50:54;;;;;;;22.40;15.73;;;17.20;99.90;;;;;;5019187;28;20220;-72
2022/09/30 06:53:21;;;;;;;25.03;17.20;;;17.20;99.90;;;;;;5020648;28;20275;-72
2022/09/30 06:55:48;;;;;;;21.30;15.23;;;17.20;99.90;;;;;;5018761;28;20218;-72
2022/09/30 06:58:16;;;;;;;21.83;15.40;;;17.30;99.90;;;;;;5015450;28;20229;-72
2022/09/30 07:00:43;;;;;;;21.97;16.00;;;17.30;99.90;;;;;;5031682;28;20213;-72
2022/09/30 07:03:24;;;;;;;19.87;15.10;;;17.30;99.90;;;;;;5014725;28;20244;-72
2022/09/30 07:05:58;;;;;;;18.23;13.60;;;17.40;99.90;;;;;;5011618;28;20209;-71
2022/09/30 07:08:28;;;;;;;19.93;14.97;;;17.50;99.90;;;;;;5016951;28;20201;-70
2022/09/30 07:10:55;;;;;;;21.93;16.00;;;17.50;99.90;;;;;;5017572;28;20664;-72
2022/09/30 07:13:23;;;;;;;20.87;14.47;;;17.60;99.90;;;;;;5012006;28;20284;-71
2022/09/30 07:15:51;;;;;;;19.70;15.17;;;17.70;99.90;;;;;;5012154;28;20214;-72
2022/09/30 07:18:19;;;;;;;22.93;17.53;;;17.70;99.90;;;;;;5012091;28;20258;-71
2022/09/30 07:20:49;;;;;;;22.40;17.00;;;17.70;99.90;;;;;;5011938;28;20206;-71
2022/09/30 07:23:15;;;;;;;20.03;15.87;;;17.80;99.90;;;;;;5015472;28;20206;-72
2022/09/30 07:25:50;;;;;;;23.47;17.60;;;17.80;99.90;;;;;;5018500;28;20209;-73
2022/09/30 07:28:17;;;;;;;22.23;16.97;;;17.80;99.90;;;;;;5015258;28;20196;-72
2022/09/30 07:30:46;;;;;;;24.07;16.33;;;17.90;99.90;;;;;;5025202;28;20224;-72
2022/09/30 07:33:15;;;;;;;20.60;15.30;;;17.90;99.90;;;;;;5012443;28;20218;-72
2022/09/30 07:35:49;;;;;;;22.97;16.30;;;17.90;99.90;;;;;;5011825;28;20236;-73
2022/09/30 07:38:17;;;;;;;22.10;15.90;;;17.90;99.90;;;;;;5022359;28;20228;-73
2022/09/30 07:40:52;;;;;;;25.63;16.47;;;18.00;99.90;;;;;;5029534;28;20214;-73
2022/09/30 07:43:19;;;;;;;22.77;16.47;;;18.10;99.90;;;;;;5031490;28;20200;-72
2022/09/30 07:45:48;;;;;;;21.07;15.90;;;18.10;99.90;;;;;;5030242;28;20249;-73
2022/09/30 07:50:56;;;;;;;22.67;15.83;;;18.30;99.90;;;;;;5009867;28;20210;-72
2022/09/30 07:53:23;;;;;;;21.57;15.60;;;18.30;99.90;;;;;;5011596;28;20213;-72
2022/09/30 07:55:49;;;;;;;22.07;15.73;;;18.40;99.90;;;;;;5011514;28;20204;-72
2022/09/30 07:58:17;;;;;;;22.57;16.40;;;18.50;99.90;;;;;;5010513;28;20219;-72
2022/09/30 08:00:43;;;;;;;22.80;16.37;;;18.50;99.90;;;;;;5011181;28;20675;-72
2022/09/30 08:03:12;;;;;;;25.27;16.37;;;18.60;99.90;;;;;;5011388;28;20265;-73
2022/09/30 08:05:39;;;;;;;28.37;18.47;;;18.70;99.90;;;;;;5011229;28;20201;-72
2022/09/30 08:08:06;;;;;;;24.10;18.27;;;18.70;99.90;;;;;;5011002;28;20206;-72
2022/09/30 08:10:34;;;;;;;22.93;17.00;;;18.80;99.90;;;;;;5028734;28;20207;-72
2022/09/30 08:13:01;;;;;;;25.03;17.77;;;18.90;99.90;;;;;;5031077;28;20230;-73
2022/09/30 08:15:27;;;;;;;29.37;20.20;;;18.90;99.90;;;;;;5021756;28;20205;-72
2022/09/30 08:17:54;;;;;;;29.17;20.53;;;19.00;99.90;;;;;;5018765;28;20209;-72
2022/09/30 08:20:23;;;;;;;28.67;21.27;;;19.00;99.90;;;;;;5025546;28;20237;-72
2022/09/30 08:22:52;;;;;;;28.80;19.80;;;19.00;99.90;;;;;;5031081;28;20211;-73
2022/09/30 08:25:19;;;;;;;28.27;20.53;;;19.00;99.90;;;;;;5019604;28;20208;-73
2022/09/30 08:27:46;;;;;;;27.33;18.97;;;19.10;99.90;;;;;;5020161;28;20291;-72
2022/09/30 08:30:13;;;;;;;23.07;17.73;;;19.10;99.90;;;;;;5017928;28;20206;-71
2022/09/30 08:32:39;;;;;;;26.23;17.33;;;19.20;99.90;;;;;;5010625;28;20241;-72
2022/09/30 08:35:07;;;;;;;25.83;18.43;;;19.30;99.90;;;;;;5011029;28;20209;-73
2022/09/30 08:37:35;;;;;;;30.33;18.97;;;19.30;99.90;;;;;;5011115;28;20230;-73
2022/09/30 08:40:02;;;;;;;26.97;18.17;;;19.40;99.90;;;;;;5011435;28;20676;-72
2022/09/30 08:42:40;;;;;;;25.77;18.67;;;19.40;99.90;;;;;;5010591;28;20207;-73
2022/09/30 08:45:20;;;;;;;27.83;18.50;;;19.50;99.90;;;;;;5010515;28;20230;-72
2022/09/30 08:47:56;;;;;;;29.93;19.20;;;19.50;99.90;;;;;;5019488;28;20195;-73
2022/09/30 08:50:31;;;;;;;26.10;16.90;;;19.50;99.90;;;;;;5011048;28;20228;-72
2022/09/30 08:53:03;;;;;;;29.73;17.87;;;19.50;99.90;;;;;;5011552;28;20206;-73
2022/09/30 08:55:38;;;;;;;30.13;17.07;;;19.60;99.90;;;;;;5011361;28;20649;-72
2022/09/30 08:58:11;;;;;;;22.83;15.80;;;19.60;99.90;;;;;;5019450;28;20209;-75
2022/09/30 09:00:40;;;;;;;24.63;16.03;;;19.60;99.90;;;;;;5031213;27;20214;-73
2022/09/30 09:03:11;;;;;;;19.77;15.17;;;19.70;99.90;;;;;;5058344;27;20198;-73
2022/09/30 09:05:47;;;;;;;24.17;15.43;;;19.70;99.90;;;;;;5050119;28;20204;-73
2022/09/30 09:08:26;;;;;;;18.63;14.63;;;19.70;99.90;;;;;;5033496;27;20205;-71
2022/09/30 09:11:00;;;;;;;19.17;14.70;;;19.80;99.90;;;;;;5014628;28;20206;-72
2022/09/30 09:13:40;;;;;;;18.10;14.13;;;19.80;99.90;;;;;;5009976;28;20232;-70
2022/09/30 09:16:14;;;;;;;23.77;15.17;;;19.90;99.90;;;;;;5009596;28;20198;-72
2022/09/30 09:18:52;;;;;;;20.67;14.80;;;19.90;99.90;;;;;;5008957;28;20206;-71
2022/09/30 09:21:30;;;;;;;16.07;12.43;;;19.90;99.90;;;;;;5009447;28;20201;-71
2022/09/30 09:24:02;;;;;;;18.33;13.03;;;20.00;99.90;;;;;;5010088;28;20285;-71
2022/09/30 09:26:35;;;;;;;15.83;11.43;;;20.00;99.90;;;;;;5010840;28;20222;-71
2022/09/30 09:29:15;;;;;;;17.50;11.60;;;20.00;99.90;;;;;;5011143;28;20216;-73
2022/09/30 09:31:42;;;;;;;18.40;12.60;;;20.00;99.90;;;;;;5010206;28;20197;-71
2022/09/30 09:34:10;;;;;;;14.60;11.40;;;20.10;99.90;;;;;;5009913;28;20221;-71
2022/09/30 09:36:53;;;;;;;14.90;11.30;;;20.10;99.90;;;;;;5010311;28;20267;-72
2022/09/30 09:39:34;;;;;;;13.80;11.20;;;20.10;99.90;;;;;;5009974;28;20551;-71
2022/09/30 09:42:12;;;;;;;15.77;11.97;;;20.20;99.90;;;;;;5010492;28;20204;-71
2022/09/30 09:44:48;;;;;;;17.87;11.00;;;20.20;99.90;;;;;;5009948;28;20202;-71
2022/09/30 09:47:16;;;;;;;14.30;10.87;;;20.20;99.90;;;;;;5010121;28;20602;-71
2022/09/30 09:49:46;;;;;;;12.30;10.33;;;20.20;99.90;;;;;;5010237;28;20537;-71
2022/09/30 09:52:39;;;;;;;14.23;11.13;;;20.20;99.90;;;;;;5009841;28;20202;-72
2022/09/30 09:55:08;;;;;;;15.60;11.70;;;20.30;99.90;;;;;;5009889;28;20629;-72
2022/09/30 09:57:35;;;;;;;15.67;11.23;;;20.30;99.90;;;;;;5009748;28;20234;-70
2022/09/30 10:02:59;;;;;;;15.07;10.10;;;20.40;99.90;;;;;;5009112;28;20205;-71
2022/09/30 10:05:27;;;;;;;12.67;10.47;;;20.40;99.90;;;;;;5010092;28;20190;-71
2022/09/30 10:08:10;;;;;;;16.43;11.57;;;20.40;99.90;;;;;;5010045;28;20214;-72
2022/09/30 10:10:46;;;;;;;15.13;10.07;;;20.50;99.90;;;;;;5011607;28;20266;-73
2022/09/30 10:13:17;;;;;;;15.03;10.87;;;20.50;99.90;;;;;;5012304;28;20226;-70
2022/09/30 10:15:43;;;;;;;16.77;11.03;;;20.50;99.90;;;;;;5012999;28;20579;-73
2022/09/30 10:18:17;;;;;;;14.63;9.30;;;20.60;99.90;;;;;;5012953;28;20207;-72
2022/09/30 10:20:52;;;;;;;15.60;10.03;;;20.70;99.90;;;;;;5013066;28;20213;-71
2022/09/30 10:23:22;;;;;;;14.33;10.03;;;20.70;99.90;;;;;;5012854;28;20199;-74
2022/09/30 10:26:00;;;;;;;14.37;9.80;;;20.80;99.90;;;;;;5012751;28;20530;-73
2022/09/30 10:28:29;;;;;;;12.87;9.03;;;21.00;99.90;;;;;;5013107;28;20548;-72
2022/09/30 10:30:58;;;;;;;11.37;8.67;;;21.00;99.90;;;;;;5012790;28;20214;-71
2022/09/30 10:33:30;;;;;;;13.80;9.53;;;21.00;99.90;;;;;;5013123;28;20208;-72
2022/09/30 10:36:09;;;;;;;12.67;9.20;;;21.10;99.90;;;;;;5012478;28;20187;-71
2022/09/30 10:38:44;;;;;;;13.97;9.77;;;21.20;99.90;;;;;;5012938;28;20191;-72
2022/09/30 10:41:13;;;;;;;12.33;9.63;;;21.30;99.90;;;;;;5012800;28;20214;-70
2022/09/30 10:43:44;;;;;;;13.23;9.70;;;21.30;99.90;;;;;;5013051;28;20576;-72
2022/09/30 10:46:13;;;;;;;17.83;11.60;;;21.30;99.90;;;;;;5012119;28;20195;-72
2022/09/30 10:48:41;;;;;;;16.33;11.20;;;21.40;99.90;;;;;;5012241;28;20216;-73
2022/09/30 10:51:23;;;;;;;13.87;10.53;;;21.50;99.90;;;;;;5012422;28;20208;-72
2022/09/30 10:53:50;;;;;;;17.00;10.23;;;21.50;99.90;;;;;;5012652;28;20526;-71
2022/09/30 10:59:27;;;;;;;14.83;11.17;;;21.60;99.90;;;;;;5172449;27;20603;-71
2022/09/30 11:02:00;;;;;;;15.00;10.97;;;21.70;99.90;;;;;;5151145;27;20204;-74
2022/09/30 11:04:33;;;;;;;18.67;11.30;;;21.70;99.90;;;;;;5151623;27;20191;-71
2022/09/30 11:07:15;;;;;;;16.50;11.17;;;21.80;99.90;;;;;;5151350;27;20191;-72
2022/09/30 11:09:50;;;;;;;13.57;10.50;;;21.80;99.90;;;;;;5151528;27;20188;-73
2022/09/30 11:12:25;;;;;;;14.07;9.43;;;21.90;99.90;;;;;;5151314;27;20227;-73
2022/09/30 11:15:03;;;;;;;14.60;10.07;;;22.00;99.90;;;;;;5151002;27;20200;-71
2022/09/30 11:17:38;;;;;;;11.77;8.90;;;22.00;99.90;;;;;;5151113;27;20630;-72
2022/09/30 11:20:17;;;;;;;11.43;8.90;;;22.10;99.90;;;;;;5150836;27;20190;-71
2022/09/30 11:22:51;;;;;;;12.73;9.30;;;22.20;99.90;;;;;;5150780;27;20189;-73
2022/09/30 11:25:23;;;;;;;12.50;9.17;;;22.30;99.90;;;;;;5150894;27;20191;-71
2022/09/30 11:28:11;;;;;;;13.07;9.23;;;22.30;99.90;;;;;;5150753;27;20189;-73
2022/09/30 11:30:49;;;;;;;14.37;9.37;;;22.30;99.90;;;;;;5150816;27;20192;-72
2022/09/30 11:33:31;;;;;;;11.17;8.37;;;22.40;99.90;;;;;;5150875;27;20651;-71
2022/09/30 11:36:06;;;;;;;13.13;9.20;;;22.40;99.90;;;;;;5150642;27;20209;-72
2022/09/30 11:38:54;;;;;;;12.20;8.57;;;22.40;99.90;;;;;;5150611;27;20567;-71
2022/09/30 11:41:26;;;;;;;15.50;9.03;;;22.50;99.90;;;;;;5150697;27;20202;-72
2022/09/30 11:44:04;;;;;;;13.00;8.40;;;22.50;99.90;;;;;;5150739;27;20187;-71
2022/09/30 11:47:07;;;;;;;12.57;8.50;;;22.50;99.90;;;;;;5150553;27;20211;-73
2022/09/30 11:49:59;;;;;;;13.37;10.30;;;22.60;99.90;;;;;;5150671;27;20528;-71
2022/09/30 11:52:34;;;;;;;12.67;8.93;;;22.60;99.90;;;;;;5150587;27;20194;-71
2022/09/30 11:55:33;;;;;;;13.10;9.73;;;22.80;99.90;;;;;;5150808;27;20193;-71
2022/09/30 11:58:05;;;;;;;14.30;9.67;;;22.80;99.90;;;;;;5149736;27;20238;-72
2022/09/30 12:00:35;;;;;;;11.47;9.40;;;22.90;99.90;;;;;;5150172;27;20335;-71
2022/09/30 12:03:09;;;;;;;11.33;8.43;;;22.90;99.90;;;;;;5150373;27;20193;-73
2022/09/30 12:05:40;;;;;;;12.57;8.20;;;23.00;99.90;;;;;;5150398;27;20212;-73
2022/09/30 12:08:13;;;;;;;13.23;8.33;;;23.10;99.90;;;;;;5150103;27;20575;-72
2022/09/30 12:10:45;;;;;;;10.70;8.60;;;23.10;99.90;;;;;;5135632;27;20525;-72
2022/09/30 12:13:17;;;;;;;11.77;8.00;;;23.20;99.90;;;;;;5136122;27;20563;-72
2022/09/30 12:15:46;;;;;;;11.97;8.50;;;23.20;99.90;;;;;;5135587;27;20291;-75
2022/09/30 12:18:17;;;;;;;10.73;7.87;;;23.20;99.90;;;;;;5136281;27;20228;-71
2022/09/30 12:20:47;;;;;;;12.73;8.07;;;23.20;99.90;;;;;;5136192;27;20190;-72
2022/09/30 12:23:19;;;;;;;11.93;8.03;;;23.20;99.90;;;;;;5136222;27;20552;-71
2022/09/30 12:25:50;;;;;;;12.17;7.40;;;23.20;99.90;;;;;;5135865;27;20198;-71
2022/09/30 12:31:40;;;;;;;8.60;6.97;;;23.20;99.90;;;;;;5135797;27;20185;-74
2022/09/30 12:34:24;;;;;;;13.20;7.83;;;23.30;99.90;;;;;;5135915;27;20187;-72
2022/09/30 12:37:04;;;;;;;9.13;7.20;;;23.30;99.90;;;;;;5135522;27;20634;-72
2022/09/30 12:39:57;;;;;;;11.30;7.97;;;23.30;99.90;;;;;;5135811;27;20214;-72
2022/09/30 12:42:57;;;;;;;11.00;6.67;;;23.30;99.90;;;;;;5135429;27;20208;-72
2022/09/30 12:45:34;;;;;;;11.97;7.60;;;23.20;99.90;;;;;;5116810;27;20606;-72
2022/09/30 12:48:07;;;;;;;12.10;7.50;;;23.30;99.90;;;;;;5135582;27;20595;-72
2022/09/30 12:50:41;;;;;;;9.93;7.57;;;23.30;99.90;;;;;;5135147;27;20243;-71
2022/09/30 12:53:17;;;;;;;8.77;7.10;;;23.30;99.90;;;;;;5135470;27;20216;-74
2022/09/30 12:55:44;;;;;;;11.23;7.33;;;23.30;99.90;;;;;;5135206;27;20633;-74
2022/09/30 12:58:21;;;;;;;10.43;6.97;;;23.30;99.90;;;;;;5135314;27;20234;-72
2022/09/30 13:01:01;;;;;;;7.87;6.43;;;23.30;99.90;;;;;;5135338;27;20189;-73
2022/09/30 13:03:28;;;;;;;12.20;7.30;;;23.30;99.90;;;;;;5135166;27;20197;-73
2022/09/30 13:06:05;;;;;;;13.27;7.83;;;23.30;99.90;;;;;;5134960;27;20202;-72